sensor_id;sensor_type;location;lat;lon;timestamp;temperature;humidity
21580;DHT22;10951;59.656;9.666;2022-07-23T00:00:20;15.00;98.00
21580;DHT22;10951;59.656;9.666;2022-07-23T00:02:47;15.10;98.60
21580;DHT22;10951;59.656;9.666;2022-07-23T00:05:14;15.10;98.40
21580;DHT22;10951;59.656;9.666;2022-07-23T00:07:42;15.10;98.70
21580;DHT22;10951;59.656;9.666;2022-07-23T00:10:09;15.10;99.00
21580;DHT22;10951;59.656;9.666;2022-07-23T00:12:36;15.10;99.10
21580;DHT22;10951;59.656;9.666;2022-07-23T00:15:16;15.10;99.00
21580;DHT22;10951;59.656;9.666;2022-07-23T00:17:43;15.10;98.80
21580;DHT22;10951;59.656;9.666;2022-07-23T00:20:10;15.10;98.80
21580;DHT22;10951;59.656;9.666;2022-07-23T00:22:46;15.10;98.60
21580;DHT22;10951;59.656;9.666;2022-07-23T00:25:13;15.10;99.00
21580;DHT22;10951;59.656;9.666;2022-07-23T00:27:58;15.10;99.00
21580;DHT22;10951;59.656;9.666;2022-07-23T00:30:26;15.10;99.00
21580;DHT22;10951;59.656;9.666;2022-07-23T00:32:55;15.10;98.90
21580;DHT22;10951;59.656;9.666;2022-07-23T00:35:29;15.00;98.80
21580;DHT22;10951;59.656;9.666;2022-07-23T00:37:57;15.00;99.00
21580;DHT22;10951;59.656;9.666;2022-07-23T00:40:25;15.00;98.80
21580;DHT22;10951;59.656;9.666;2022-07-23T00:42:52;15.00;98.90
21580;DHT22;10951;59.656;9.666;2022-07-23T00:45:20;14.90;99.20
21580;DHT22;10951;59.656;9.666;2022-07-23T00:47:47;14.90;98.80
21580;DHT22;10951;59.656;9.666;2022-07-23T00:50:14;14.90;98.90
21580;DHT22;10951;59.656;9.666;2022-07-23T00:52:41;14.80;99.00
21580;DHT22;10951;59.656;9.666;2022-07-23T00:55:10;14.80;98.90
21580;DHT22;10951;59.656;9.666;2022-07-23T00:57:38;14.80;98.70
21580;DHT22;10951;59.656;9.666;2022-07-23T01:00:08;14.80;99.10
21580;DHT22;10951;59.656;9.666;2022-07-23T01:02:37;14.80;98.90
21580;DHT22;10951;59.656;9.666;2022-07-23T01:05:04;14.80;99.20
21580;DHT22;10951;59.656;9.666;2022-07-23T01:07:33;14.80;99.60
21580;DHT22;10951;59.656;9.666;2022-07-23T01:10:00;14.80;99.90
21580;DHT22;10951;59.656;9.666;2022-07-23T01:12:27;14.80;99.90
21580;DHT22;10951;59.656;9.666;2022-07-23T01:14:55;14.80;99.80
21580;DHT22;10951;59.656;9.666;2022-07-23T01:17:23;14.80;99.90
21580;DHT22;10951;59.656;9.666;2022-07-23T01:19:50;14.80;99.90
21580;DHT22;10951;59.656;9.666;2022-07-23T01:22:18;14.70;99.90
21580;DHT22;10951;59.656;9.666;2022-07-23T01:24:46;14.70;99.90
21580;DHT22;10951;59.656;9.666;2022-07-23T01:27:16;14.70;99.90
21580;DHT22;10951;59.656;9.666;2022-07-23T01:29:48;14.70;99.90
21580;DHT22;10951;59.656;9.666;2022-07-23T01:32:19;14.70;99.90
21580;DHT22;10951;59.656;9.666;2022-07-23T01:34:45;14.70;99.90
21580;DHT22;10951;59.656;9.666;2022-07-23T01:37:12;14.60;99.90
21580;DHT22;10951;59.656;9.666;2022-07-23T01:39:39;14.60;99.90
21580;DHT22;10951;59.656;9.666;2022-07-23T01:42:07;14.60;99.90
21580;DHT22;10951;59.656;9.666;2022-07-23T01:44:34;14.60;99.90
21580;DHT22;10951;59.656;9.666;2022-07-23T01:47:01;14.70;99.90
21580;DHT22;10951;59.656;9.666;2022-07-23T01:49:29;14.70;99.70
21580;DHT22;10951;59.656;9.666;2022-07-23T01:52:31;14.70;99.90
21580;DHT22;10951;59.656;9.666;2022-07-23T01:54:58;14.70;99.90
21580;DHT22;10951;59.656;9.666;2022-07-23T01:57:25;14.80;99.80
21580;DHT22;10951;59.656;9.666;2022-07-23T01:59:52;14.80;99.30
21580;DHT22;10951;59.656;9.666;2022-07-23T02:02:23;14.80;98.60
21580;DHT22;10951;59.656;9.666;2022-07-23T02:04:53;14.90;98.40
21580;DHT22;10951;59.656;9.666;2022-07-23T02:07:24;14.90;97.70
21580;DHT22;10951;59.656;9.666;2022-07-23T02:09:51;14.80;97.90
21580;DHT22;10951;59.656;9.666;2022-07-23T02:12:18;14.80;98.30
21580;DHT22;10951;59.656;9.666;2022-07-23T02:14:45;14.80;98.30
21580;DHT22;10951;59.656;9.666;2022-07-23T02:17:12;14.80;98.30
21580;DHT22;10951;59.656;9.666;2022-07-23T02:19:39;14.80;98.60
21580;DHT22;10951;59.656;9.666;2022-07-23T02:22:06;14.70;98.80
21580;DHT22;10951;59.656;9.666;2022-07-23T02:24:33;14.70;98.90
21580;DHT22;10951;59.656;9.666;2022-07-23T02:27:00;14.70;98.40
21580;DHT22;10951;59.656;9.666;2022-07-23T02:29:26;14.70;98.30
21580;DHT22;10951;59.656;9.666;2022-07-23T02:31:54;14.70;98.20
21580;DHT22;10951;59.656;9.666;2022-07-23T02:34:22;14.70;98.30
21580;DHT22;10951;59.656;9.666;2022-07-23T02:36:49;14.70;98.30
21580;DHT22;10951;59.656;9.666;2022-07-23T02:39:27;14.70;98.40
21580;DHT22;10951;59.656;9.666;2022-07-23T02:41:54;14.60;98.30
21580;DHT22;10951;59.656;9.666;2022-07-23T02:44:21;14.60;98.60
21580;DHT22;10951;59.656;9.666;2022-07-23T02:46:51;14.60;99.20
21580;DHT22;10951;59.656;9.666;2022-07-23T02:49:18;14.50;99.30
21580;DHT22;10951;59.656;9.666;2022-07-23T02:51:46;14.60;99.40
21580;DHT22;10951;59.656;9.666;2022-07-23T02:54:15;14.50;99.20
21580;DHT22;10951;59.656;9.666;2022-07-23T02:56:42;14.50;99.40
21580;DHT22;10951;59.656;9.666;2022-07-23T02:59:10;14.50;98.80
21580;DHT22;10951;59.656;9.666;2022-07-23T03:01:38;14.50;99.20
21580;DHT22;10951;59.656;9.666;2022-07-23T03:04:06;14.50;99.40
21580;DHT22;10951;59.656;9.666;2022-07-23T03:06:33;14.50;99.40
21580;DHT22;10951;59.656;9.666;2022-07-23T03:09:00;14.50;99.50
21580;DHT22;10951;59.656;9.666;2022-07-23T03:11:27;14.50;99.40
21580;DHT22;10951;59.656;9.666;2022-07-23T03:13:54;14.50;99.10
21580;DHT22;10951;59.656;9.666;2022-07-23T03:16:21;14.60;98.40
21580;DHT22;10951;59.656;9.666;2022-07-23T03:18:49;14.60;98.00
21580;DHT22;10951;59.656;9.666;2022-07-23T03:21:16;14.60;98.00
21580;DHT22;10951;59.656;9.666;2022-07-23T03:23:43;14.60;98.00
21580;DHT22;10951;59.656;9.666;2022-07-23T03:26:10;14.60;98.50
21580;DHT22;10951;59.656;9.666;2022-07-23T03:28:38;14.60;98.70
21580;DHT22;10951;59.656;9.666;2022-07-23T03:31:05;14.60;98.60
21580;DHT22;10951;59.656;9.666;2022-07-23T03:33:32;14.50;98.80
21580;DHT22;10951;59.656;9.666;2022-07-23T03:35:59;14.50;98.80
21580;DHT22;10951;59.656;9.666;2022-07-23T03:38:29;14.50;98.80
21580;DHT22;10951;59.656;9.666;2022-07-23T03:40:56;14.50;98.80
21580;DHT22;10951;59.656;9.666;2022-07-23T03:43:23;14.60;98.80
21580;DHT22;10951;59.656;9.666;2022-07-23T03:45:52;14.50;98.70
21580;DHT22;10951;59.656;9.666;2022-07-23T03:48:19;14.60;98.70
21580;DHT22;10951;59.656;9.666;2022-07-23T03:50:46;14.60;98.40
21580;DHT22;10951;59.656;9.666;2022-07-23T03:53:13;14.60;98.40
21580;DHT22;10951;59.656;9.666;2022-07-23T03:55:40;14.60;98.40
21580;DHT22;10951;59.656;9.666;2022-07-23T03:58:07;14.60;98.60
21580;DHT22;10951;59.656;9.666;2022-07-23T04:00:34;14.60;98.70
21580;DHT22;10951;59.656;9.666;2022-07-23T04:03:01;14.60;98.70
21580;DHT22;10951;59.656;9.666;2022-07-23T04:05:29;14.60;98.60
21580;DHT22;10951;59.656;9.666;2022-07-23T04:08:04;14.60;98.50
21580;DHT22;10951;59.656;9.666;2022-07-23T04:10:33;14.90;98.10
21580;DHT22;10951;59.656;9.666;2022-07-23T04:13:01;15.30;97.30
21580;DHT22;10951;59.656;9.666;2022-07-23T04:15:28;15.80;96.50
21580;DHT22;10951;59.656;9.666;2022-07-23T04:17:55;16.20;95.60
21580;DHT22;10951;59.656;9.666;2022-07-23T04:20:28;16.80;94.60
21580;DHT22;10951;59.656;9.666;2022-07-23T04:22:58;17.50;93.40
21580;DHT22;10951;59.656;9.666;2022-07-23T04:25:25;18.00;92.20
21580;DHT22;10951;59.656;9.666;2022-07-23T04:27:52;18.40;91.10
21580;DHT22;10951;59.656;9.666;2022-07-23T04:30:18;18.80;90.10
21580;DHT22;10951;59.656;9.666;2022-07-23T04:32:45;19.10;87.60
21580;DHT22;10951;59.656;9.666;2022-07-23T04:35:19;19.50;85.00
21580;DHT22;10951;59.656;9.666;2022-07-23T04:37:46;19.90;83.30
21580;DHT22;10951;59.656;9.666;2022-07-23T04:40:13;20.00;81.60
21580;DHT22;10951;59.656;9.666;2022-07-23T04:42:40;20.20;80.30
21580;DHT22;10951;59.656;9.666;2022-07-23T04:45:07;20.30;79.30
21580;DHT22;10951;59.656;9.666;2022-07-23T04:47:39;20.30;78.80
21580;DHT22;10951;59.656;9.666;2022-07-23T04:50:06;20.40;78.70
21580;DHT22;10951;59.656;9.666;2022-07-23T04:52:34;20.40;77.40
21580;DHT22;10951;59.656;9.666;2022-07-23T04:55:02;20.40;77.20
21580;DHT22;10951;59.656;9.666;2022-07-23T04:57:29;20.50;74.30
21580;DHT22;10951;59.656;9.666;2022-07-23T04:59:56;20.50;74.20
21580;DHT22;10951;59.656;9.666;2022-07-23T05:02:24;20.50;73.70
21580;DHT22;10951;59.656;9.666;2022-07-23T05:04:51;20.50;72.60
21580;DHT22;10951;59.656;9.666;2022-07-23T05:07:17;20.50;71.40
21580;DHT22;10951;59.656;9.666;2022-07-23T05:09:44;20.60;71.00
21580;DHT22;10951;59.656;9.666;2022-07-23T05:12:11;20.70;71.20
21580;DHT22;10951;59.656;9.666;2022-07-23T05:14:40;20.80;70.60
21580;DHT22;10951;59.656;9.666;2022-07-23T05:17:08;21.00;69.40
21580;DHT22;10951;59.656;9.666;2022-07-23T05:19:35;21.00;68.30
21580;DHT22;10951;59.656;9.666;2022-07-23T05:22:02;21.20;68.50
21580;DHT22;10951;59.656;9.666;2022-07-23T05:24:29;21.20;66.60
21580;DHT22;10951;59.656;9.666;2022-07-23T05:26:56;21.10;67.90
21580;DHT22;10951;59.656;9.666;2022-07-23T05:29:25;21.00;67.00
21580;DHT22;10951;59.656;9.666;2022-07-23T05:31:52;21.00;67.50
21580;DHT22;10951;59.656;9.666;2022-07-23T05:34:19;21.20;67.20
21580;DHT22;10951;59.656;9.666;2022-07-23T05:36:47;21.30;65.10
21580;DHT22;10951;59.656;9.666;2022-07-23T05:39:15;21.60;64.60
21580;DHT22;10951;59.656;9.666;2022-07-23T05:41:43;21.90;63.30
21580;DHT22;10951;59.656;9.666;2022-07-23T05:44:10;22.20;62.40
21580;DHT22;10951;59.656;9.666;2022-07-23T05:46:39;22.40;60.20
21580;DHT22;10951;59.656;9.666;2022-07-23T05:49:09;22.60;59.60
21580;DHT22;10951;59.656;9.666;2022-07-23T05:51:55;22.60;59.40
21580;DHT22;10951;59.656;9.666;2022-07-23T05:54:36;22.30;59.70
21580;DHT22;10951;59.656;9.666;2022-07-23T05:57:03;22.20;59.30
21580;DHT22;10951;59.656;9.666;2022-07-23T05:59:31;21.90;59.50
21580;DHT22;10951;59.656;9.666;2022-07-23T06:01:58;21.60;60.70
21580;DHT22;10951;59.656;9.666;2022-07-23T06:04:26;21.50;60.80
21580;DHT22;10951;59.656;9.666;2022-07-23T06:07:11;21.60;59.90
21580;DHT22;10951;59.656;9.666;2022-07-23T06:09:38;21.80;59.40
21580;DHT22;10951;59.656;9.666;2022-07-23T06:12:05;22.00;58.60
21580;DHT22;10951;59.656;9.666;2022-07-23T06:14:32;22.20;59.00
21580;DHT22;10951;59.656;9.666;2022-07-23T06:16:59;22.30;58.70
21580;DHT22;10951;59.656;9.666;2022-07-23T06:19:26;22.50;58.10
21580;DHT22;10951;59.656;9.666;2022-07-23T06:21:53;22.50;57.70
21580;DHT22;10951;59.656;9.666;2022-07-23T06:24:20;22.60;57.80
21580;DHT22;10951;59.656;9.666;2022-07-23T06:26:48;22.70;57.40
21580;DHT22;10951;59.656;9.666;2022-07-23T06:29:15;22.80;57.30
21580;DHT22;10951;59.656;9.666;2022-07-23T06:31:43;22.70;56.80
21580;DHT22;10951;59.656;9.666;2022-07-23T06:34:10;22.70;56.50
21580;DHT22;10951;59.656;9.666;2022-07-23T06:36:37;22.80;56.90
21580;DHT22;10951;59.656;9.666;2022-07-23T06:39:05;22.80;56.90
21580;DHT22;10951;59.656;9.666;2022-07-23T06:41:35;22.80;57.10
21580;DHT22;10951;59.656;9.666;2022-07-23T06:44:02;22.80;56.70
21580;DHT22;10951;59.656;9.666;2022-07-23T06:46:31;22.90;56.00
21580;DHT22;10951;59.656;9.666;2022-07-23T06:48:59;22.90;56.50
21580;DHT22;10951;59.656;9.666;2022-07-23T06:51:28;22.80;55.90
21580;DHT22;10951;59.656;9.666;2022-07-23T06:53:55;22.80;56.20
21580;DHT22;10951;59.656;9.666;2022-07-23T06:56:22;22.90;56.50
21580;DHT22;10951;59.656;9.666;2022-07-23T06:58:49;23.00;56.40
21580;DHT22;10951;59.656;9.666;2022-07-23T07:01:16;23.00;56.30
21580;DHT22;10951;59.656;9.666;2022-07-23T07:03:43;23.00;55.50
21580;DHT22;10951;59.656;9.666;2022-07-23T07:06:10;23.10;56.40
21580;DHT22;10951;59.656;9.666;2022-07-23T07:08:37;23.10;56.10
21580;DHT22;10951;59.656;9.666;2022-07-23T07:11:04;22.90;55.30
21580;DHT22;10951;59.656;9.666;2022-07-23T07:13:31;22.70;55.70
21580;DHT22;10951;59.656;9.666;2022-07-23T07:15:57;22.40;56.30
21580;DHT22;10951;59.656;9.666;2022-07-23T07:18:24;22.20;57.40
21580;DHT22;10951;59.656;9.666;2022-07-23T07:20:51;22.00;57.50
21580;DHT22;10951;59.656;9.666;2022-07-23T07:23:22;21.90;57.80
21580;DHT22;10951;59.656;9.666;2022-07-23T07:25:49;21.90;57.50
21580;DHT22;10951;59.656;9.666;2022-07-23T07:28:16;21.90;58.10
21580;DHT22;10951;59.656;9.666;2022-07-23T07:30:43;22.00;58.00
21580;DHT22;10951;59.656;9.666;2022-07-23T07:33:10;22.00;57.10
21580;DHT22;10951;59.656;9.666;2022-07-23T07:35:36;21.90;58.30
21580;DHT22;10951;59.656;9.666;2022-07-23T07:38:03;21.90;58.80
21580;DHT22;10951;59.656;9.666;2022-07-23T07:40:30;21.70;57.60
21580;DHT22;10951;59.656;9.666;2022-07-23T07:43:00;21.70;58.00
21580;DHT22;10951;59.656;9.666;2022-07-23T07:45:28;21.60;58.30
21580;DHT22;10951;59.656;9.666;2022-07-23T07:47:55;21.50;58.10
21580;DHT22;10951;59.656;9.666;2022-07-23T07:50:22;21.50;58.50
21580;DHT22;10951;59.656;9.666;2022-07-23T07:52:49;21.50;58.70
21580;DHT22;10951;59.656;9.666;2022-07-23T07:55:16;21.60;58.50
21580;DHT22;10951;59.656;9.666;2022-07-23T07:57:44;21.80;59.10
21580;DHT22;10951;59.656;9.666;2022-07-23T08:00:16;22.10;58.50
21580;DHT22;10951;59.656;9.666;2022-07-23T08:02:45;22.10;57.50
21580;DHT22;10951;59.656;9.666;2022-07-23T08:05:14;22.10;58.00
21580;DHT22;10951;59.656;9.666;2022-07-23T08:07:41;22.20;57.30
21580;DHT22;10951;59.656;9.666;2022-07-23T08:10:08;22.30;57.20
21580;DHT22;10951;59.656;9.666;2022-07-23T08:12:49;22.10;57.50
21580;DHT22;10951;59.656;9.666;2022-07-23T08:15:18;22.20;58.50
21580;DHT22;10951;59.656;9.666;2022-07-23T08:17:46;22.30;57.70
21580;DHT22;10951;59.656;9.666;2022-07-23T08:20:15;22.30;56.60
21580;DHT22;10951;59.656;9.666;2022-07-23T08:25:21;22.10;56.40
21580;DHT22;10951;59.656;9.666;2022-07-23T08:27:49;22.00;57.00
21580;DHT22;10951;59.656;9.666;2022-07-23T08:30:16;21.90;57.70
21580;DHT22;10951;59.656;9.666;2022-07-23T08:32:59;21.70;57.90
21580;DHT22;10951;59.656;9.666;2022-07-23T08:35:32;21.60;58.80
21580;DHT22;10951;59.656;9.666;2022-07-23T08:38:01;21.60;58.50
21580;DHT22;10951;59.656;9.666;2022-07-23T08:40:31;21.70;59.20
21580;DHT22;10951;59.656;9.666;2022-07-23T08:42:59;21.80;58.30
21580;DHT22;10951;59.656;9.666;2022-07-23T08:45:26;21.90;59.00
21580;DHT22;10951;59.656;9.666;2022-07-23T08:47:55;22.00;58.20
21580;DHT22;10951;59.656;9.666;2022-07-23T08:50:23;22.10;58.00
21580;DHT22;10951;59.656;9.666;2022-07-23T08:52:51;22.00;57.40
21580;DHT22;10951;59.656;9.666;2022-07-23T08:55:22;21.90;57.80
21580;DHT22;10951;59.656;9.666;2022-07-23T08:57:52;21.90;58.50
21580;DHT22;10951;59.656;9.666;2022-07-23T09:00:21;21.90;58.70
21580;DHT22;10951;59.656;9.666;2022-07-23T09:02:49;21.90;58.00
21580;DHT22;10951;59.656;9.666;2022-07-23T09:05:18;21.90;58.50
21580;DHT22;10951;59.656;9.666;2022-07-23T09:08:11;22.00;58.90
21580;DHT22;10951;59.656;9.666;2022-07-23T09:15:52;22.00;58.70
21580;DHT22;10951;59.656;9.666;2022-07-23T09:18:31;21.90;59.00
21580;DHT22;10951;59.656;9.666;2022-07-23T09:23:43;21.70;60.40
21580;DHT22;10951;59.656;9.666;2022-07-23T09:31:49;21.30;60.70
21580;DHT22;10951;59.656;9.666;2022-07-23T09:34:18;21.30;61.30
21580;DHT22;10951;59.656;9.666;2022-07-23T09:36:46;21.30;61.60
21580;DHT22;10951;59.656;9.666;2022-07-23T09:39:13;21.30;61.90
21580;DHT22;10951;59.656;9.666;2022-07-23T09:41:45;21.20;61.70
21580;DHT22;10951;59.656;9.666;2022-07-23T09:44:17;21.10;62.40
21580;DHT22;10951;59.656;9.666;2022-07-23T09:46:58;21.10;61.60
21580;DHT22;10951;59.656;9.666;2022-07-23T09:49:26;21.10;62.10
21580;DHT22;10951;59.656;9.666;2022-07-23T09:51:58;21.10;61.60
21580;DHT22;10951;59.656;9.666;2022-07-23T09:54:34;21.00;61.60
21580;DHT22;10951;59.656;9.666;2022-07-23T09:59:36;20.90;62.80
21580;DHT22;10951;59.656;9.666;2022-07-23T10:02:07;20.80;62.80
21580;DHT22;10951;59.656;9.666;2022-07-23T10:04:46;20.60;64.10
21580;DHT22;10951;59.656;9.666;2022-07-23T10:07:27;20.60;63.90
21580;DHT22;10951;59.656;9.666;2022-07-23T10:10:15;20.60;63.70
21580;DHT22;10951;59.656;9.666;2022-07-23T10:12:44;20.60;64.10
21580;DHT22;10951;59.656;9.666;2022-07-23T10:15:18;20.70;64.00
21580;DHT22;10951;59.656;9.666;2022-07-23T10:17:45;20.70;64.20
21580;DHT22;10951;59.656;9.666;2022-07-23T10:20:12;20.80;64.20
21580;DHT22;10951;59.656;9.666;2022-07-23T10:23:05;20.90;63.10
21580;DHT22;10951;59.656;9.666;2022-07-23T10:25:59;21.00;63.60
21580;DHT22;10951;59.656;9.666;2022-07-23T10:34:41;21.20;63.90
21580;DHT22;10951;59.656;9.666;2022-07-23T10:37:36;21.20;62.70
21580;DHT22;10951;59.656;9.666;2022-07-23T10:42:36;21.40;65.50
21580;DHT22;10951;59.656;9.666;2022-07-23T10:47:50;21.40;66.80
21580;DHT22;10951;59.656;9.666;2022-07-23T10:50:26;21.30;67.40
21580;DHT22;10951;59.656;9.666;2022-07-23T10:53:17;21.30;68.40
21580;DHT22;10951;59.656;9.666;2022-07-23T10:55:49;21.10;69.00
21580;DHT22;10951;59.656;9.666;2022-07-23T10:58:23;21.00;69.10
21580;DHT22;10951;59.656;9.666;2022-07-23T11:00:50;21.00;69.30
21580;DHT22;10951;59.656;9.666;2022-07-23T11:03:32;20.90;69.30
21580;DHT22;10951;59.656;9.666;2022-07-23T11:05:59;20.90;69.50
21580;DHT22;10951;59.656;9.666;2022-07-23T11:08:26;20.80;68.90
21580;DHT22;10951;59.656;9.666;2022-07-23T11:24:06;20.70;68.00
21580;DHT22;10951;59.656;9.666;2022-07-23T11:32:27;20.90;65.90
21580;DHT22;10951;59.656;9.666;2022-07-23T11:34:55;21.00;65.70
21580;DHT22;10951;59.656;9.666;2022-07-23T11:37:33;20.90;65.80
21580;DHT22;10951;59.656;9.666;2022-07-23T11:42:35;21.00;65.40
21580;DHT22;10951;59.656;9.666;2022-07-23T11:45:04;21.10;65.10
21580;DHT22;10951;59.656;9.666;2022-07-23T11:47:31;21.20;64.40
21580;DHT22;10951;59.656;9.666;2022-07-23T11:50:00;21.20;64.80
21580;DHT22;10951;59.656;9.666;2022-07-23T11:52:28;21.30;64.60
21580;DHT22;10951;59.656;9.666;2022-07-23T11:55:06;21.40;64.00
21580;DHT22;10951;59.656;9.666;2022-07-23T11:57:43;21.60;64.20
21580;DHT22;10951;59.656;9.666;2022-07-23T12:00:13;21.40;62.80
21580;DHT22;10951;59.656;9.666;2022-07-23T12:02:48;21.50;63.80
21580;DHT22;10951;59.656;9.666;2022-07-23T12:05:18;21.50;64.00
21580;DHT22;10951;59.656;9.666;2022-07-23T12:07:47;21.60;63.40
21580;DHT22;10951;59.656;9.666;2022-07-23T12:10:21;21.50;63.20
21580;DHT22;10951;59.656;9.666;2022-07-23T12:12:50;21.60;64.20
21580;DHT22;10951;59.656;9.666;2022-07-23T12:15:30;21.70;63.60
21580;DHT22;10951;59.656;9.666;2022-07-23T12:18:00;21.80;63.50
21580;DHT22;10951;59.656;9.666;2022-07-23T12:20:30;21.80;63.40
21580;DHT22;10951;59.656;9.666;2022-07-23T12:23:02;21.90;63.90
21580;DHT22;10951;59.656;9.666;2022-07-23T12:25:34;22.10;62.90
21580;DHT22;10951;59.656;9.666;2022-07-23T12:28:20;22.10;63.10
21580;DHT22;10951;59.656;9.666;2022-07-23T12:30:50;22.20;62.70
21580;DHT22;10951;59.656;9.666;2022-07-23T12:33:34;22.40;61.30
21580;DHT22;10951;59.656;9.666;2022-07-23T12:36:05;22.50;61.50
21580;DHT22;10951;59.656;9.666;2022-07-23T12:38:41;22.40;61.20
21580;DHT22;10951;59.656;9.666;2022-07-23T12:41:09;22.50;61.90
21580;DHT22;10951;59.656;9.666;2022-07-23T12:43:37;22.60;61.50
21580;DHT22;10951;59.656;9.666;2022-07-23T12:46:16;22.60;61.50
21580;DHT22;10951;59.656;9.666;2022-07-23T12:48:52;22.80;61.40
21580;DHT22;10951;59.656;9.666;2022-07-23T12:51:30;22.90;60.70
21580;DHT22;10951;59.656;9.666;2022-07-23T12:54:07;23.00;60.80
21580;DHT22;10951;59.656;9.666;2022-07-23T12:56:36;23.10;60.70
21580;DHT22;10951;59.656;9.666;2022-07-23T13:01:36;23.20;60.20
21580;DHT22;10951;59.656;9.666;2022-07-23T13:04:19;23.10;59.60
21580;DHT22;10951;59.656;9.666;2022-07-23T13:06:55;23.10;60.10
21580;DHT22;10951;59.656;9.666;2022-07-23T13:09:28;23.20;59.40
21580;DHT22;10951;59.656;9.666;2022-07-23T13:11:59;23.20;59.40
21580;DHT22;10951;59.656;9.666;2022-07-23T13:14:28;23.30;59.40
21580;DHT22;10951;59.656;9.666;2022-07-23T13:16:55;23.20;59.40
21580;DHT22;10951;59.656;9.666;2022-07-23T13:19:25;22.80;59.50
21580;DHT22;10951;59.656;9.666;2022-07-23T13:21:53;22.40;60.10
21580;DHT22;10951;59.656;9.666;2022-07-23T13:24:21;22.30;61.00
21580;DHT22;10951;59.656;9.666;2022-07-23T13:26:48;22.20;61.70
21580;DHT22;10951;59.656;9.666;2022-07-23T13:29:18;22.20;60.90
21580;DHT22;10951;59.656;9.666;2022-07-23T13:32:05;22.20;61.10
21580;DHT22;10951;59.656;9.666;2022-07-23T13:34:39;22.30;61.60
21580;DHT22;10951;59.656;9.666;2022-07-23T13:37:07;22.20;61.80
21580;DHT22;10951;59.656;9.666;2022-07-23T13:39:34;22.10;61.90
21580;DHT22;10951;59.656;9.666;2022-07-23T13:42:05;22.10;62.10
21580;DHT22;10951;59.656;9.666;2022-07-23T13:44:34;22.10;62.10
21580;DHT22;10951;59.656;9.666;2022-07-23T13:47:02;22.10;63.20
21580;DHT22;10951;59.656;9.666;2022-07-23T13:49:30;22.20;63.80
21580;DHT22;10951;59.656;9.666;2022-07-23T13:51:57;22.20;63.70
21580;DHT22;10951;59.656;9.666;2022-07-23T13:54:24;22.20;63.10
21580;DHT22;10951;59.656;9.666;2022-07-23T13:56:54;22.30;63.30
21580;DHT22;10951;59.656;9.666;2022-07-23T13:59:23;22.30;62.90
21580;DHT22;10951;59.656;9.666;2022-07-23T14:01:53;22.40;63.10
21580;DHT22;10951;59.656;9.666;2022-07-23T14:04:40;22.50;62.30
21580;DHT22;10951;59.656;9.666;2022-07-23T14:07:08;22.60;62.50
21580;DHT22;10951;59.656;9.666;2022-07-23T14:09:35;22.70;61.90
21580;DHT22;10951;59.656;9.666;2022-07-23T14:12:04;22.60;61.30
21580;DHT22;10951;59.656;9.666;2022-07-23T14:14:32;22.70;61.30
21580;DHT22;10951;59.656;9.666;2022-07-23T14:17:03;22.60;62.10
21580;DHT22;10951;59.656;9.666;2022-07-23T14:19:31;22.50;61.60
21580;DHT22;10951;59.656;9.666;2022-07-23T14:21:58;22.40;62.20
21580;DHT22;10951;59.656;9.666;2022-07-23T14:24:25;22.40;62.00
21580;DHT22;10951;59.656;9.666;2022-07-23T14:27:01;22.50;62.10
21580;DHT22;10951;59.656;9.666;2022-07-23T14:29:28;22.50;61.90
21580;DHT22;10951;59.656;9.666;2022-07-23T14:31:56;22.60;61.70
21580;DHT22;10951;59.656;9.666;2022-07-23T14:34:25;22.70;62.20
21580;DHT22;10951;59.656;9.666;2022-07-23T14:36:54;23.00;62.80
21580;DHT22;10951;59.656;9.666;2022-07-23T14:39:20;23.40;61.40
21580;DHT22;10951;59.656;9.666;2022-07-23T14:41:48;23.60;60.90
21580;DHT22;10951;59.656;9.666;2022-07-23T14:44:15;23.80;59.80
21580;DHT22;10951;59.656;9.666;2022-07-23T14:46:42;23.90;60.10
21580;DHT22;10951;59.656;9.666;2022-07-23T14:49:09;24.00;58.70
21580;DHT22;10951;59.656;9.666;2022-07-23T14:51:36;24.00;59.10
21580;DHT22;10951;59.656;9.666;2022-07-23T14:54:04;24.00;59.50
21580;DHT22;10951;59.656;9.666;2022-07-23T14:56:32;24.10;58.60
21580;DHT22;10951;59.656;9.666;2022-07-23T14:59:00;24.20;57.90
21580;DHT22;10951;59.656;9.666;2022-07-23T15:01:28;24.20;58.30
21580;DHT22;10951;59.656;9.666;2022-07-23T15:03:55;24.20;58.80
21580;DHT22;10951;59.656;9.666;2022-07-23T15:06:25;24.20;58.70
21580;DHT22;10951;59.656;9.666;2022-07-23T15:08:52;24.30;57.90
21580;DHT22;10951;59.656;9.666;2022-07-23T15:11:19;24.30;57.80
21580;DHT22;10951;59.656;9.666;2022-07-23T15:13:46;24.20;56.90
21580;DHT22;10951;59.656;9.666;2022-07-23T15:16:14;24.20;57.60
21580;DHT22;10951;59.656;9.666;2022-07-23T15:18:42;24.20;58.30
21580;DHT22;10951;59.656;9.666;2022-07-23T15:21:10;24.20;57.90
21580;DHT22;10951;59.656;9.666;2022-07-23T15:23:38;24.10;57.30
21580;DHT22;10951;59.656;9.666;2022-07-23T15:26:07;24.20;57.40
21580;DHT22;10951;59.656;9.666;2022-07-23T15:28:35;24.10;57.10
21580;DHT22;10951;59.656;9.666;2022-07-23T15:31:04;24.30;57.70
21580;DHT22;10951;59.656;9.666;2022-07-23T15:33:34;24.40;57.00
21580;DHT22;10951;59.656;9.666;2022-07-23T15:36:02;24.40;56.80
21580;DHT22;10951;59.656;9.666;2022-07-23T15:38:31;24.50;57.40
21580;DHT22;10951;59.656;9.666;2022-07-23T15:40:59;24.70;57.00
21580;DHT22;10951;59.656;9.666;2022-07-23T15:43:26;24.70;56.40
21580;DHT22;10951;59.656;9.666;2022-07-23T15:45:53;24.70;56.50
21580;DHT22;10951;59.656;9.666;2022-07-23T15:48:21;24.60;56.30
21580;DHT22;10951;59.656;9.666;2022-07-23T15:50:48;24.40;55.80
21580;DHT22;10951;59.656;9.666;2022-07-23T15:53:15;24.30;57.10
21580;DHT22;10951;59.656;9.666;2022-07-23T15:55:43;24.40;57.30
21580;DHT22;10951;59.656;9.666;2022-07-23T15:58:13;24.40;56.40
21580;DHT22;10951;59.656;9.666;2022-07-23T16:00:40;24.40;56.10
21580;DHT22;10951;59.656;9.666;2022-07-23T16:03:12;24.30;56.40
21580;DHT22;10951;59.656;9.666;2022-07-23T16:05:42;24.30;57.20
21580;DHT22;10951;59.656;9.666;2022-07-23T16:08:10;24.20;56.60
21580;DHT22;10951;59.656;9.666;2022-07-23T16:10:37;24.10;57.00
21580;DHT22;10951;59.656;9.666;2022-07-23T16:13:04;24.00;57.20
21580;DHT22;10951;59.656;9.666;2022-07-23T16:15:31;24.00;56.90
21580;DHT22;10951;59.656;9.666;2022-07-23T16:17:58;23.80;56.60
21580;DHT22;10951;59.656;9.666;2022-07-23T16:20:25;23.80;57.60
21580;DHT22;10951;59.656;9.666;2022-07-23T16:22:52;23.80;57.20
21580;DHT22;10951;59.656;9.666;2022-07-23T16:25:19;23.80;57.60
21580;DHT22;10951;59.656;9.666;2022-07-23T16:27:46;23.90;58.00
21580;DHT22;10951;59.656;9.666;2022-07-23T16:30:13;24.10;57.90
21580;DHT22;10951;59.656;9.666;2022-07-23T16:32:40;24.30;57.50
21580;DHT22;10951;59.656;9.666;2022-07-23T16:35:09;24.50;58.10
21580;DHT22;10951;59.656;9.666;2022-07-23T16:37:41;24.60;56.60